createdAt,value
2023-04-21T00:00:54.166Z,30.70
2023-04-21T00:03:22.784Z,31.80
2023-04-21T00:05:51.078Z,31.45
2023-04-21T00:08:19.140Z,30.35
2023-04-21T00:10:47.091Z,29.63
2023-04-21T00:13:14.432Z,29.30
2023-04-21T00:15:41.937Z,29.80
2023-04-21T00:18:10.167Z,29.60
2023-04-21T00:20:37.440Z,30.10
2023-04-21T00:23:04.356Z,30.98
2023-04-21T00:25:31.190Z,29.52
2023-04-21T00:27:58.180Z,28.58
2023-04-21T00:30:25.244Z,28.25
2023-04-21T00:32:52.083Z,30.52
2023-04-21T00:35:19.038Z,29.15
2023-04-21T00:37:46.330Z,29.77
2023-04-21T00:40:13.886Z,29.60
2023-04-21T00:42:40.875Z,30.77
2023-04-21T00:45:08.508Z,29.63
2023-04-21T00:47:35.456Z,29.55
2023-04-21T00:50:03.440Z,30.38
2023-04-21T00:52:30.596Z,31.05
2023-04-21T00:54:57.623Z,30.30
2023-04-21T00:57:24.359Z,30.02
2023-04-21T00:59:52.216Z,30.05
2023-04-21T01:02:19.133Z,29.42
2023-04-21T01:04:46.408Z,30.25
2023-04-21T01:07:13.167Z,28.40
2023-04-21T01:09:40.372Z,28.92
2023-04-21T01:12:11.722Z,29.70
2023-04-21T01:17:08.962Z,28.17
2023-04-21T01:19:41.501Z,29.45
2023-04-21T01:22:13.000Z,28.25
2023-04-21T01:24:42.728Z,30.05
2023-04-21T01:27:11.843Z,28.90
2023-04-21T01:29:40.838Z,28.65
2023-04-21T01:32:10.563Z,29.52
2023-04-21T01:34:38.228Z,29.95
2023-04-21T01:37:08.126Z,29.67
2023-04-21T01:39:35.272Z,29.52
2023-04-21T01:42:02.058Z,30.90
2023-04-21T01:44:28.828Z,29.13
2023-04-21T01:46:56.004Z,30.83
2023-04-21T01:49:22.767Z,30.55
2023-04-21T01:51:49.799Z,30.23
2023-04-21T01:54:16.582Z,29.85
2023-04-21T01:56:43.406Z,29.05
2023-04-21T01:59:10.733Z,29.25
2023-04-21T02:01:37.570Z,29.40
2023-04-21T02:04:06.723Z,29.70
2023-04-21T02:06:33.885Z,30.75
2023-04-21T02:09:00.627Z,30.48
2023-04-21T02:11:27.334Z,30.17
2023-04-21T02:13:55.160Z,29.65
2023-04-21T02:16:26.450Z,30.52
2023-04-21T02:18:57.247Z,29.83
2023-04-21T02:21:25.193Z,28.95
2023-04-21T02:23:52.474Z,27.95
2023-04-21T02:26:19.980Z,28.73
2023-04-21T02:28:47.488Z,27.92
2023-04-21T02:31:14.658Z,28.55
2023-04-21T02:33:41.813Z,29.05
2023-04-21T02:36:09.052Z,27.42
2023-04-21T02:38:35.835Z,28.55
2023-04-21T02:41:02.779Z,28.60
2023-04-21T02:43:29.980Z,28.08
2023-04-21T02:45:57.033Z,29.45
2023-04-21T02:48:23.963Z,29.83
2023-04-21T02:50:51.167Z,29.80
2023-04-21T02:53:18.177Z,31.17
2023-04-21T02:55:44.886Z,29.13
2023-04-21T02:58:11.690Z,30.92
2023-04-21T03:00:38.461Z,29.08
2023-04-21T03:03:05.615Z,29.50
2023-04-21T03:05:32.482Z,32.08
2023-04-21T03:07:59.273Z,29.77
2023-04-21T03:10:26.100Z,30.73
2023-04-21T03:12:53.838Z,30.05
2023-04-21T03:15:21.296Z,29.73
2023-04-21T03:17:48.367Z,28.45
2023-04-21T03:20:16.417Z,29.05
2023-04-21T03:22:43.091Z,27.75
2023-04-21T03:25:09.906Z,28.65
2023-04-21T03:27:36.586Z,28.60
2023-04-21T03:30:03.482Z,28.75
2023-04-21T03:32:30.345Z,27.83
2023-04-21T03:34:57.227Z,28.13
2023-04-21T03:37:24.137Z,27.95
2023-04-21T03:39:50.903Z,28.60
2023-04-21T03:42:17.713Z,27.30
2023-04-21T03:44:50.442Z,28.20
2023-04-21T03:47:18.191Z,27.87
2023-04-21T03:49:44.994Z,28.13
2023-04-21T03:52:12.556Z,28.13
2023-04-21T03:54:39.631Z,28.40
2023-04-21T03:57:06.364Z,26.45
2023-04-21T03:59:33.378Z,27.70
2023-04-21T04:02:00.247Z,26.10
2023-04-21T04:04:27.546Z,26.90
2023-04-21T04:06:54.387Z,26.88
2023-04-21T04:09:21.312Z,27.48
2023-04-21T04:11:48.165Z,27.88
2023-04-21T04:14:15.131Z,27.58
2023-04-21T04:16:41.972Z,26.73
2023-04-21T04:19:09.449Z,28.20
2023-04-21T04:21:36.299Z,26.48
2023-04-21T04:24:03.537Z,26.73
2023-04-21T04:26:30.347Z,26.90
2023-04-21T04:28:57.363Z,25.58
2023-04-21T04:31:25.864Z,26.75
2023-04-21T04:33:54.884Z,27.15
2023-04-21T04:36:23.292Z,26.42
2023-04-21T04:38:50.136Z,26.38
2023-04-21T04:41:17.142Z,26.63
2023-04-21T04:43:44.289Z,27.10
2023-04-21T04:46:13.346Z,26.58
2023-04-21T04:48:40.786Z,27.25
2023-04-21T04:51:07.826Z,26.05
2023-04-21T04:53:35.611Z,26.08
2023-04-21T04:56:02.512Z,25.45
2023-04-21T04:58:29.237Z,25.95
2023-04-21T05:00:56.235Z,25.20
2023-04-21T05:03:23.093Z,25.98
2023-04-21T05:05:49.898Z,25.85
2023-04-21T05:08:18.067Z,26.35
2023-04-21T05:10:45.820Z,26.30
2023-04-21T05:13:12.823Z,26.48
2023-04-21T05:15:39.778Z,26.70
2023-04-21T05:18:07.945Z,25.70
2023-04-21T05:20:34.718Z,26.73
2023-04-21T05:23:01.417Z,26.75
2023-04-21T05:25:28.736Z,25.85
2023-04-21T05:27:55.988Z,26.17
2023-04-21T05:30:23.105Z,25.75
2023-04-21T05:32:50.657Z,25.33
2023-04-21T05:35:17.549Z,24.73
2023-04-21T05:37:44.244Z,25.67
2023-04-21T05:40:11.296Z,24.88
2023-04-21T05:42:38.576Z,24.52
2023-04-21T05:45:06.279Z,25.23
2023-04-21T05:47:33.123Z,24.40
2023-04-21T05:50:00.256Z,25.20
2023-04-21T05:52:27.068Z,24.70
2023-04-21T05:54:53.839Z,22.73
2023-04-21T05:57:21.188Z,24.50
2023-04-21T05:59:48.172Z,23.80
2023-04-21T06:02:15.288Z,22.95
2023-04-21T06:04:42.312Z,23.55
2023-04-21T06:07:10.743Z,22.85
2023-04-21T06:09:38.887Z,22.85
2023-04-21T06:12:06.317Z,22.08
2023-04-21T06:14:33.464Z,22.67
2023-04-21T06:17:00.302Z,22.58
2023-04-21T06:19:27.233Z,22.67
2023-04-21T06:21:54.276Z,22.88
2023-04-21T06:24:25.868Z,22.17
2023-04-21T06:26:53.642Z,21.38
2023-04-21T06:29:21.443Z,20.92
2023-04-21T06:31:48.388Z,21.85
2023-04-21T06:34:15.794Z,22.20
2023-04-21T06:36:43.025Z,21.70
2023-04-21T06:39:09.903Z,21.27
2023-04-21T06:41:36.799Z,21.85
2023-04-21T06:44:03.595Z,20.88
2023-04-21T06:46:30.489Z,22.33
2023-04-21T06:48:57.235Z,21.00
2023-04-21T06:51:24.823Z,21.02
2023-04-21T06:53:51.939Z,20.58
2023-04-21T06:56:18.718Z,20.67
2023-04-21T06:58:47.207Z,21.35
2023-04-21T07:01:14.036Z,21.77
2023-04-21T07:03:41.622Z,21.38
2023-04-21T07:06:08.778Z,19.17
2023-04-21T07:08:35.815Z,21.20
2023-04-21T07:11:02.862Z,20.13
2023-04-21T07:13:30.021Z,21.15
2023-04-21T07:15:56.956Z,18.50
2023-04-21T07:18:23.796Z,18.33
2023-04-21T07:20:50.984Z,18.88
2023-04-21T07:23:18.071Z,19.40
2023-04-21T07:25:44.904Z,18.98
2023-04-21T07:28:11.764Z,18.40
2023-04-21T07:30:38.663Z,18.88
2023-04-21T07:33:05.763Z,18.42
2023-04-21T07:35:32.626Z,18.17
2023-04-21T07:37:59.481Z,17.52
2023-04-21T07:40:26.671Z,17.55
2023-04-21T07:42:53.410Z,17.98
2023-04-21T07:45:20.255Z,18.17
2023-04-21T07:47:47.281Z,17.90
2023-04-21T07:50:14.269Z,17.65
2023-04-21T07:52:41.262Z,17.50
2023-04-21T07:55:08.269Z,17.00
2023-04-21T07:57:39.116Z,17.25
2023-04-21T08:00:07.215Z,17.50
2023-04-21T08:02:34.151Z,17.98
2023-04-21T08:05:01.011Z,15.85
2023-04-21T08:07:28.005Z,16.45
2023-04-21T08:09:55.053Z,15.30
2023-04-21T08:12:21.734Z,15.98
2023-04-21T08:14:48.837Z,16.00
2023-04-21T08:17:16.362Z,15.98
2023-04-21T08:19:43.232Z,16.25
2023-04-21T08:22:10.111Z,15.38
2023-04-21T08:24:37.020Z,15.25
2023-04-21T08:27:03.975Z,16.27
2023-04-21T08:29:30.995Z,16.58
2023-04-21T08:31:57.804Z,16.10
2023-04-21T08:34:27.209Z,16.42
2023-04-21T08:36:55.471Z,16.20
2023-04-21T08:39:22.424Z,15.73
2023-04-21T08:41:50.021Z,16.40
2023-04-21T08:44:16.852Z,15.43
2023-04-21T08:46:45.802Z,15.07
2023-04-21T08:49:13.505Z,15.55
2023-04-21T08:51:40.530Z,14.40
2023-04-21T08:54:07.362Z,16.38
2023-04-21T08:56:34.273Z,15.63
2023-04-21T08:59:01.061Z,15.32
2023-04-21T09:01:28.285Z,14.93
2023-04-21T09:03:55.250Z,15.60
2023-04-21T09:06:22.566Z,14.52
2023-04-21T09:08:56.455Z,14.60
2023-04-21T09:11:23.700Z,14.60
2023-04-21T09:13:50.771Z,15.27
2023-04-21T09:16:22.237Z,14.57
2023-04-21T09:18:50.228Z,14.50
2023-04-21T09:21:19.019Z,14.43
2023-04-21T09:23:51.483Z,13.60
2023-04-21T09:26:21.969Z,14.05
2023-04-21T09:28:50.089Z,13.52
2023-04-21T09:31:22.071Z,13.13
2023-04-21T09:34:00.135Z,12.70
2023-04-21T09:36:29.731Z,12.80
2023-04-21T09:41:33.764Z,12.70
2023-04-21T09:44:02.150Z,12.88
2023-04-21T09:46:29.909Z,12.55
2023-04-21T09:48:57.421Z,12.30
2023-04-21T09:51:42.713Z,12.40
2023-04-21T09:56:58.042Z,12.00
2023-04-21T09:59:38.282Z,12.93
2023-04-21T10:02:07.911Z,12.73
2023-04-21T10:04:37.005Z,12.40
2023-04-21T10:07:04.120Z,12.73
2023-04-21T10:09:39.773Z,13.40
2023-04-21T10:12:09.002Z,12.18
2023-04-21T10:14:36.847Z,11.13
2023-04-21T10:17:06.213Z,12.38
2023-04-21T10:19:39.960Z,11.18
2023-04-21T10:22:09.248Z,11.32
2023-04-21T10:24:40.224Z,11.13
2023-04-21T10:27:12.005Z,10.50
2023-04-21T10:29:54.766Z,10.57
2023-04-21T10:32:43.265Z,10.02
2023-04-21T10:35:22.089Z,9.40
2023-04-21T10:37:50.716Z,10.00
2023-04-21T10:40:44.130Z,9.68
2023-04-21T10:43:44.379Z,9.30
2023-04-21T10:46:35.562Z,11.75
2023-04-21T10:49:07.569Z,10.23
2023-04-21T10:51:56.321Z,8.55
2023-04-21T10:54:23.253Z,8.27
2023-04-21T10:56:52.705Z,8.18
2023-04-21T10:59:19.843Z,8.32
2023-04-21T11:01:46.832Z,7.40
2023-04-21T11:04:18.192Z,7.57
2023-04-21T11:07:08.519Z,7.38
2023-04-21T11:09:36.263Z,7.10
2023-04-21T11:12:11.739Z,7.22
2023-04-21T11:14:42.126Z,7.07
2023-04-21T11:17:13.856Z,7.05
2023-04-21T11:19:40.865Z,6.32
2023-04-21T11:22:08.447Z,6.13
2023-04-21T11:24:35.322Z,5.72
2023-04-21T11:27:02.719Z,6.45
2023-04-21T11:29:30.129Z,5.72
2023-04-21T11:31:57.287Z,5.43
2023-04-21T11:34:25.861Z,5.45
2023-04-21T11:36:53.297Z,6.00
2023-04-21T11:39:22.316Z,5.85
2023-04-21T11:41:51.001Z,5.28
2023-04-21T11:44:35.862Z,6.00
2023-04-21T11:47:20.390Z,5.22
2023-04-21T11:52:25.996Z,5.00
2023-04-21T11:55:13.243Z,5.30
2023-04-21T11:57:41.634Z,5.50
2023-04-21T12:00:13.673Z,5.30
2023-04-21T12:02:40.807Z,5.18
2023-04-21T12:05:12.923Z,5.90
2023-04-21T12:07:43.285Z,5.72
2023-04-21T12:10:12.347Z,5.93
2023-04-21T12:12:40.081Z,5.75
2023-04-21T12:15:08.300Z,6.43
2023-04-21T12:17:40.642Z,6.22
2023-04-21T12:20:08.998Z,6.28
2023-04-21T12:22:37.637Z,6.47
2023-04-21T12:25:06.434Z,5.72
2023-04-21T12:27:33.336Z,5.63
2023-04-21T12:30:00.183Z,5.85
2023-04-21T12:32:27.185Z,5.70
2023-04-21T12:34:53.902Z,5.40
2023-04-21T12:37:21.024Z,5.22
2023-04-21T12:39:47.913Z,5.30
2023-04-21T12:42:14.808Z,5.13
2023-04-21T12:44:41.867Z,4.95
2023-04-21T12:47:08.777Z,5.15
2023-04-21T12:49:35.816Z,5.10
2023-04-21T12:52:05.810Z,5.22
2023-04-21T12:54:32.608Z,5.50
2023-04-21T12:56:59.623Z,4.80
2023-04-21T12:59:26.574Z,5.03
2023-04-21T13:01:54.046Z,4.95
2023-04-21T13:04:22.305Z,5.20
2023-04-21T13:06:49.436Z,5.43
2023-04-21T13:09:17.306Z,4.72
2023-04-21T13:11:44.105Z,5.35
2023-04-21T13:14:11.208Z,5.20
2023-04-21T13:16:38.253Z,4.60
2023-04-21T13:19:05.651Z,5.20
2023-04-21T13:21:33.037Z,4.60
2023-04-21T13:23:59.951Z,4.53
2023-04-21T13:26:27.820Z,4.40
2023-04-21T13:28:55.085Z,4.15
2023-04-21T13:31:22.051Z,4.38
2023-04-21T13:33:49.757Z,4.45
2023-04-21T13:36:17.459Z,4.50
2023-04-21T13:38:44.521Z,3.80
2023-04-21T13:41:11.827Z,4.45
2023-04-21T13:43:38.852Z,4.25
2023-04-21T13:46:06.179Z,4.20
2023-04-21T13:48:32.890Z,4.10
2023-04-21T13:50:59.771Z,4.05
2023-04-21T13:53:27.171Z,4.18
2023-04-21T13:55:57.818Z,4.25
2023-04-21T13:58:24.612Z,3.70
2023-04-21T14:00:51.678Z,3.80
2023-04-21T14:03:19.062Z,3.50
2023-04-21T14:05:46.245Z,3.75
2023-04-21T14:08:13.034Z,4.15
2023-04-21T14:10:39.910Z,3.45
2023-04-21T14:13:07.278Z,3.28
2023-04-21T14:15:34.820Z,3.13
2023-04-21T14:18:01.666Z,3.10
2023-04-21T14:20:28.735Z,3.08
2023-04-21T14:22:55.593Z,3.28
2023-04-21T14:25:22.825Z,3.20
2023-04-21T14:27:49.667Z,2.85
2023-04-21T14:30:16.839Z,3.20
2023-04-21T14:32:45.966Z,2.97
2023-04-21T14:35:13.214Z,2.95
2023-04-21T14:37:41.631Z,2.60
2023-04-21T14:40:10.234Z,3.08
2023-04-21T14:42:37.023Z,2.80
2023-04-21T14:45:04.386Z,2.70
2023-04-21T14:47:31.431Z,3.13
2023-04-21T14:49:58.607Z,2.90
2023-04-21T14:52:27.208Z,3.05
2023-04-21T14:54:54.131Z,2.55
2023-04-21T14:57:22.303Z,2.53
2023-04-21T14:59:53.555Z,2.63
2023-04-21T15:02:21.805Z,2.97
2023-04-21T15:04:49.541Z,2.80
2023-04-21T15:07:19.900Z,2.65
2023-04-21T15:09:51.645Z,2.60
2023-04-21T15:12:18.734Z,2.95
2023-04-21T15:14:45.530Z,2.92
2023-04-21T15:17:12.721Z,2.90
2023-04-21T15:19:39.477Z,2.70
2023-04-21T15:22:06.366Z,2.70
2023-04-21T15:24:33.475Z,2.75
2023-04-21T15:27:00.308Z,2.70
2023-04-21T15:29:30.466Z,2.80
2023-04-21T15:31:57.780Z,3.10
2023-04-21T15:34:25.330Z,2.80
2023-04-21T15:36:52.398Z,3.25
2023-04-21T15:39:19.300Z,3.53
2023-04-21T15:41:46.514Z,3.13
2023-04-21T15:44:13.470Z,3.50
2023-04-21T15:46:40.652Z,3.90
2023-04-21T15:49:07.675Z,3.42
2023-04-21T15:51:36.629Z,5.32
2023-04-21T15:54:04.908Z,3.97
2023-04-21T15:56:32.024Z,3.20
2023-04-21T15:58:59.142Z,3.40
2023-04-21T16:01:26.124Z,3.20
2023-04-21T16:03:53.733Z,3.90
2023-04-21T16:06:21.872Z,3.78
2023-04-21T16:08:48.724Z,4.07
2023-04-21T16:11:16.158Z,4.28
2023-04-21T16:13:43.122Z,5.03
2023-04-21T16:16:10.578Z,6.30
2023-04-21T16:18:37.650Z,6.20
2023-04-21T16:21:04.801Z,5.20
2023-04-21T16:23:32.414Z,4.32
2023-04-21T16:26:00.349Z,5.85
2023-04-21T16:28:30.246Z,3.67
2023-04-21T16:30:57.167Z,4.32
2023-04-21T16:33:24.120Z,4.35
2023-04-21T16:35:52.523Z,4.40
2023-04-21T16:38:20.098Z,5.80
2023-04-21T16:40:47.272Z,5.45
2023-04-21T16:43:14.212Z,3.80
2023-04-21T16:45:41.226Z,3.60
2023-04-21T16:48:08.648Z,2.95
2023-04-21T16:50:36.112Z,3.60
2023-04-21T16:53:03.101Z,3.50
2023-04-21T16:55:31.706Z,3.70
2023-04-21T16:57:59.613Z,3.83
2023-04-21T17:00:27.507Z,3.15
2023-04-21T17:02:55.279Z,3.70
2023-04-21T17:05:23.532Z,4.28
2023-04-21T17:07:51.345Z,3.30
2023-04-21T17:10:18.803Z,3.17
2023-04-21T17:12:46.545Z,3.72
2023-04-21T17:15:13.585Z,3.28
2023-04-21T17:17:43.343Z,3.53
2023-04-21T17:20:12.022Z,3.45
2023-04-21T17:22:40.152Z,3.30
2023-04-21T17:25:08.415Z,3.40
2023-04-21T17:27:36.750Z,3.20
2023-04-21T17:30:08.085Z,2.80
2023-04-21T17:32:35.968Z,3.28
2023-04-21T17:35:05.124Z,2.83
2023-04-21T17:37:32.056Z,2.85
2023-04-21T17:40:02.444Z,3.13
2023-04-21T17:42:30.082Z,3.47
2023-04-21T17:44:56.860Z,3.17
2023-04-21T17:47:23.598Z,3.88
2023-04-21T17:49:50.893Z,3.58
2023-04-21T17:52:18.533Z,5.05
2023-04-21T17:54:46.566Z,5.90
2023-04-21T17:57:13.498Z,6.43
2023-04-21T17:59:40.687Z,6.30
2023-04-21T18:02:07.879Z,6.90
2023-04-21T18:04:35.246Z,5.53
2023-04-21T18:07:03.118Z,4.75
2023-04-21T18:09:32.838Z,5.00
2023-04-21T18:12:00.285Z,4.47
2023-04-21T18:14:27.548Z,5.70
2023-04-21T18:16:54.812Z,6.15
2023-04-21T18:19:21.689Z,5.60
2023-04-21T18:21:48.384Z,5.60
2023-04-21T18:24:15.301Z,6.20
2023-04-21T18:26:42.348Z,6.22
2023-04-21T18:29:09.231Z,5.28
2023-04-21T18:31:36.468Z,4.97
2023-04-21T18:34:03.362Z,5.20
2023-04-21T18:36:32.916Z,5.07
2023-04-21T18:39:00.630Z,5.90
2023-04-21T18:41:27.842Z,5.80
2023-04-21T18:43:55.008Z,6.03
2023-04-21T18:46:22.435Z,6.15
2023-04-21T18:48:49.262Z,6.65
2023-04-21T18:51:16.087Z,5.22
2023-04-21T18:53:43.564Z,5.22
2023-04-21T18:56:10.359Z,4.82
2023-04-21T18:58:37.467Z,4.80
2023-04-21T19:01:04.228Z,4.00
2023-04-21T19:03:31.463Z,3.97
2023-04-21T19:05:58.996Z,3.83
2023-04-21T19:08:40.706Z,3.85
2023-04-21T19:11:08.109Z,4.72
2023-04-21T19:13:34.823Z,5.50
2023-04-21T19:16:01.943Z,5.72
2023-04-21T19:18:29.093Z,5.97
2023-04-21T19:20:56.285Z,5.43
2023-04-21T19:23:23.588Z,4.60
2023-04-21T19:25:54.840Z,5.05
2023-04-21T19:28:21.937Z,5.97
2023-04-21T19:30:49.181Z,5.15
2023-04-21T19:33:16.664Z,4.80
2023-04-21T19:35:43.608Z,7.40
2023-04-21T19:38:10.646Z,6.10
2023-04-21T19:40:37.513Z,5.20
2023-04-21T19:43:05.212Z,5.25
2023-04-21T19:45:32.021Z,4.90
2023-04-21T19:47:59.019Z,4.35
2023-04-21T19:50:25.863Z,4.80
2023-04-21T19:52:52.711Z,4.93
2023-04-21T19:55:19.731Z,4.60
2023-04-21T19:57:46.568Z,5.05
2023-04-21T20:00:14.472Z,5.82
2023-04-21T20:02:41.533Z,5.85
2023-04-21T20:05:09.689Z,5.00
2023-04-21T20:07:37.500Z,5.55
2023-04-21T20:10:07.989Z,5.85
2023-04-21T20:12:34.812Z,5.65
2023-04-21T20:15:02.132Z,5.60
2023-04-21T20:17:29.601Z,5.30
2023-04-21T20:19:56.639Z,5.55
2023-04-21T20:22:23.829Z,5.20
2023-04-21T20:24:52.267Z,4.82
2023-04-21T20:27:19.180Z,4.63
2023-04-21T20:29:46.976Z,4.95
2023-04-21T20:32:14.202Z,4.55
2023-04-21T20:34:41.252Z,5.57
2023-04-21T20:37:08.320Z,4.60
2023-04-21T20:39:35.035Z,5.60
2023-04-21T20:42:12.710Z,4.63
2023-04-21T20:44:41.564Z,6.78
2023-04-21T20:47:08.728Z,7.97
2023-04-21T20:49:35.987Z,4.70
2023-04-21T20:52:03.060Z,5.22
2023-04-21T20:54:29.840Z,4.70
2023-04-21T20:56:56.572Z,4.78
2023-04-21T20:59:23.351Z,5.30
2023-04-21T21:01:50.141Z,4.68
2023-04-21T21:04:17.345Z,4.28
2023-04-21T21:06:44.426Z,5.38
2023-04-21T21:09:11.955Z,4.40
2023-04-21T21:11:38.807Z,5.00
2023-04-21T21:14:05.850Z,4.88
2023-04-21T21:16:32.862Z,4.68
2023-04-21T21:18:59.798Z,5.07
2023-04-21T21:21:26.787Z,5.20
2023-04-21T21:23:53.499Z,5.25
2023-04-21T21:26:20.824Z,6.93
2023-04-21T21:28:47.761Z,6.43
2023-04-21T21:31:14.863Z,5.07
2023-04-21T21:33:41.779Z,5.60
2023-04-21T21:36:08.647Z,5.90
2023-04-21T21:38:35.457Z,5.85
2023-04-21T21:41:02.217Z,5.82
2023-04-21T21:43:29.071Z,5.43
2023-04-21T21:45:56.019Z,5.10
2023-04-21T21:48:22.860Z,5.47
2023-04-21T21:50:49.677Z,5.22
2023-04-21T21:53:16.438Z,6.05
2023-04-21T21:55:43.253Z,5.88
2023-04-21T21:58:10.262Z,6.90
2023-04-21T22:00:39.335Z,7.03
2023-04-21T22:03:06.661Z,7.10
2023-04-21T22:05:34.418Z,6.60
2023-04-21T22:08:01.197Z,6.20
2023-04-21T22:10:28.211Z,5.70
2023-04-21T22:12:54.852Z,5.43
2023-04-21T22:15:21.745Z,5.72
2023-04-21T22:17:48.584Z,5.82
2023-04-21T22:20:15.492Z,5.28
2023-04-21T22:22:42.263Z,5.45
2023-04-21T22:25:11.118Z,5.32
2023-04-21T22:27:37.863Z,5.50
2023-04-21T22:30:05.647Z,5.53
2023-04-21T22:32:32.662Z,5.35
2023-04-21T22:35:00.021Z,4.95
2023-04-21T22:37:27.657Z,5.40
2023-04-21T22:39:57.986Z,5.10
2023-04-21T22:42:24.727Z,5.38
2023-04-21T22:44:51.419Z,5.75
2023-04-21T22:47:18.146Z,5.22
2023-04-21T22:49:44.976Z,5.30
2023-04-21T22:52:11.886Z,5.32
2023-04-21T22:54:38.713Z,5.18
2023-04-21T22:57:06.127Z,5.50
2023-04-21T22:59:33.220Z,5.35
2023-04-21T23:02:00.328Z,5.30
2023-04-21T23:04:27.117Z,5.70
2023-04-21T23:06:54.084Z,5.82
2023-04-21T23:09:20.980Z,5.22
2023-04-21T23:11:47.680Z,5.30
2023-04-21T23:14:14.435Z,5.57
2023-04-21T23:16:41.304Z,6.10
2023-04-21T23:19:08.075Z,5.47
2023-04-21T23:21:35.082Z,6.15
2023-04-21T23:24:01.948Z,5.93
2023-04-21T23:26:28.640Z,6.45
2023-04-21T23:28:55.333Z,6.78
2023-04-21T23:31:22.279Z,6.57
2023-04-21T23:33:49.062Z,6.65
2023-04-21T23:36:15.907Z,9.13
2023-04-21T23:38:42.586Z,8.00
2023-04-21T23:41:09.334Z,7.45
2023-04-21T23:43:37.560Z,5.47
2023-04-21T23:46:04.540Z,5.18
2023-04-21T23:48:31.318Z,5.47
2023-04-21T23:50:58.068Z,5.05
2023-04-21T23:53:25.197Z,5.45
2023-04-21T23:55:52.127Z,5.40
2023-04-21T23:58:18.790Z,5.00
